Carmel, Colorado
Current Conditions -  °F | °C
As of 10:52 AM on Monday 24 Nov 2014 (Local Time) from KALS Reporting Station
Clear Clear  
Wind Chill: 21°   Ceiling: Unl
Heat Index: 28°   Visibility: 10mi
Dew Point:   Wind: 7mph
Humidity: 36%   Direction: 230°SW
Pressure: 30.05"   Gusts: NA
Location:  37.469°N, 105.836°W
Report Text: KALS 241752Z AUTO 23006KT 10SM CLR M02/M16 A3005 RMK AO2 SLP214 T10221156 11022 21167 58002
Loading
Personal Weather Stations






























Interactive Weather Map New forecast layout! Learn more

10-Day Weather Forecast

Advertisements
Track Severe Weather on mobile